sensor_id;sensor_type;location;lat;lon;timestamp;P1;durP1;ratioP1;P2;durP2;ratioP2
49854;SDS011;35752;52.164;21.244;2022-12-18T00:01:56;62.80;;;33.25;;
49854;SDS011;35752;52.164;21.244;2022-12-18T00:04:24;61.58;;;33.53;;
49854;SDS011;35752;52.164;21.244;2022-12-18T00:06:50;66.90;;;34.72;;
49854;SDS011;35752;52.164;21.244;2022-12-18T00:09:17;67.65;;;33.67;;
49854;SDS011;35752;52.164;21.244;2022-12-18T00:11:43;60.55;;;30.13;;
49854;SDS011;35752;52.164;21.244;2022-12-18T00:14:09;62.22;;;31.90;;
49854;SDS011;35752;52.164;21.244;2022-12-18T00:16:37;64.20;;;33.80;;
49854;SDS011;35752;52.164;21.244;2022-12-18T00:19:03;53.78;;;28.67;;
49854;SDS011;35752;52.164;21.244;2022-12-18T00:21:30;54.17;;;29.23;;
49854;SDS011;35752;52.164;21.244;2022-12-18T00:23:57;52.65;;;28.63;;
49854;SDS011;35752;52.164;21.244;2022-12-18T00:26:30;54.88;;;30.50;;
49854;SDS011;35752;52.164;21.244;2022-12-18T00:28:58;50.97;;;27.75;;
49854;SDS011;35752;52.164;21.244;2022-12-18T00:31:29;55.55;;;26.63;;
49854;SDS011;35752;52.164;21.244;2022-12-18T00:33:55;54.70;;;27.92;;
49854;SDS011;35752;52.164;21.244;2022-12-18T00:36:23;47.72;;;27.80;;
49854;SDS011;35752;52.164;21.244;2022-12-18T00:38:51;49.83;;;27.90;;
49854;SDS011;35752;52.164;21.244;2022-12-18T00:41:18;50.47;;;27.73;;
49854;SDS011;35752;52.164;21.244;2022-12-18T00:44:03;55.40;;;29.48;;
49854;SDS011;35752;52.164;21.244;2022-12-18T00:46:29;52.97;;;27.25;;
49854;SDS011;35752;52.164;21.244;2022-12-18T00:48:55;56.08;;;29.95;;
49854;SDS011;35752;52.164;21.244;2022-12-18T00:51:21;51.17;;;28.80;;
49854;SDS011;35752;52.164;21.244;2022-12-18T00:53:47;50.65;;;27.50;;
49854;SDS011;35752;52.164;21.244;2022-12-18T00:56:12;49.10;;;26.75;;
49854;SDS011;35752;52.164;21.244;2022-12-18T00:58:38;52.45;;;28.50;;
49854;SDS011;35752;52.164;21.244;2022-12-18T01:01:04;53.90;;;27.92;;
49854;SDS011;35752;52.164;21.244;2022-12-18T01:03:31;50.05;;;27.88;;
49854;SDS011;35752;52.164;21.244;2022-12-18T01:05:56;53.65;;;29.52;;
49854;SDS011;35752;52.164;21.244;2022-12-18T01:08:22;52.10;;;28.95;;
49854;SDS011;35752;52.164;21.244;2022-12-18T01:10:48;50.95;;;28.20;;
49854;SDS011;35752;52.164;21.244;2022-12-18T01:13:14;54.45;;;30.25;;
49854;SDS011;35752;52.164;21.244;2022-12-18T01:15:39;52.42;;;29.27;;
49854;SDS011;35752;52.164;21.244;2022-12-18T01:18:06;58.60;;;30.50;;
49854;SDS011;35752;52.164;21.244;2022-12-18T01:20:31;57.13;;;28.92;;
49854;SDS011;35752;52.164;21.244;2022-12-18T01:22:57;55.95;;;30.88;;
49854;SDS011;35752;52.164;21.244;2022-12-18T01:25:23;50.92;;;28.52;;
49854;SDS011;35752;52.164;21.244;2022-12-18T01:27:49;48.10;;;28.45;;
49854;SDS011;35752;52.164;21.244;2022-12-18T01:30:14;55.85;;;27.95;;
49854;SDS011;35752;52.164;21.244;2022-12-18T01:32:40;44.25;;;26.25;;
49854;SDS011;35752;52.164;21.244;2022-12-18T01:35:06;48.75;;;28.20;;
49854;SDS011;35752;52.164;21.244;2022-12-18T01:37:32;51.53;;;27.38;;
49854;SDS011;35752;52.164;21.244;2022-12-18T01:39:58;50.63;;;26.23;;
49854;SDS011;35752;52.164;21.244;2022-12-18T01:42:23;45.00;;;26.30;;
49854;SDS011;35752;52.164;21.244;2022-12-18T01:44:53;42.20;;;26.60;;
49854;SDS011;35752;52.164;21.244;2022-12-18T01:47:33;41.92;;;24.52;;
49854;SDS011;35752;52.164;21.244;2022-12-18T01:49:59;46.90;;;25.55;;
49854;SDS011;35752;52.164;21.244;2022-12-18T01:52:31;48.75;;;24.58;;
49854;SDS011;35752;52.164;21.244;2022-12-18T01:54:58;43.90;;;25.45;;
49854;SDS011;35752;52.164;21.244;2022-12-18T01:57:26;53.97;;;26.75;;
49854;SDS011;35752;52.164;21.244;2022-12-18T01:59:54;43.30;;;24.23;;
49854;SDS011;35752;52.164;21.244;2022-12-18T02:02:25;44.42;;;25.23;;
49854;SDS011;35752;52.164;21.244;2022-12-18T02:04:54;45.33;;;24.38;;
49854;SDS011;35752;52.164;21.244;2022-12-18T02:07:23;49.63;;;26.95;;
49854;SDS011;35752;52.164;21.244;2022-12-18T02:10:27;39.45;;;22.83;;
49854;SDS011;35752;52.164;21.244;2022-12-18T02:13:00;44.72;;;24.00;;
49854;SDS011;35752;52.164;21.244;2022-12-18T02:29:14;43.58;;;23.75;;
49854;SDS011;35752;52.164;21.244;2022-12-18T02:31:43;42.60;;;24.30;;
49854;SDS011;35752;52.164;21.244;2022-12-18T02:34:14;45.85;;;24.60;;
49854;SDS011;35752;52.164;21.244;2022-12-18T02:36:42;45.20;;;23.70;;
49854;SDS011;35752;52.164;21.244;2022-12-18T02:39:09;41.65;;;22.52;;
49854;SDS011;35752;52.164;21.244;2022-12-18T02:41:37;43.30;;;23.23;;
49854;SDS011;35752;52.164;21.244;2022-12-18T02:44:07;41.65;;;23.42;;
49854;SDS011;35752;52.164;21.244;2022-12-18T02:46:48;41.85;;;22.77;;
49854;SDS011;35752;52.164;21.244;2022-12-18T03:00:24;37.00;;;20.88;;
49854;SDS011;35752;52.164;21.244;2022-12-18T03:03:10;39.90;;;20.63;;
49854;SDS011;35752;52.164;21.244;2022-12-18T03:05:56;37.55;;;18.92;;
49854;SDS011;35752;52.164;21.244;2022-12-18T03:08:27;33.47;;;19.55;;
49854;SDS011;35752;52.164;21.244;2022-12-18T03:10:57;32.20;;;18.75;;
49854;SDS011;35752;52.164;21.244;2022-12-18T03:13:27;35.70;;;18.73;;
49854;SDS011;35752;52.164;21.244;2022-12-18T03:16:25;35.60;;;18.52;;
49854;SDS011;35752;52.164;21.244;2022-12-18T03:18:56;35.03;;;19.20;;
49854;SDS011;35752;52.164;21.244;2022-12-18T03:23:53;29.65;;;16.63;;
49854;SDS011;35752;52.164;21.244;2022-12-18T03:26:23;29.50;;;16.38;;
49854;SDS011;35752;52.164;21.244;2022-12-18T03:28:59;35.83;;;18.48;;
49854;SDS011;35752;52.164;21.244;2022-12-18T03:31:29;34.85;;;19.58;;
49854;SDS011;35752;52.164;21.244;2022-12-18T03:34:01;32.95;;;18.98;;
49854;SDS011;35752;52.164;21.244;2022-12-18T03:36:30;34.78;;;19.00;;
49854;SDS011;35752;52.164;21.244;2022-12-18T03:38:56;31.92;;;17.98;;
49854;SDS011;35752;52.164;21.244;2022-12-18T03:41:28;33.35;;;19.08;;
49854;SDS011;35752;52.164;21.244;2022-12-18T03:44:26;32.13;;;18.27;;
49854;SDS011;35752;52.164;21.244;2022-12-18T03:47:16;33.03;;;18.33;;
49854;SDS011;35752;52.164;21.244;2022-12-18T03:49:57;36.55;;;18.48;;
49854;SDS011;35752;52.164;21.244;2022-12-18T03:52:41;30.42;;;17.70;;
49854;SDS011;35752;52.164;21.244;2022-12-18T03:55:10;34.35;;;17.63;;
49854;SDS011;35752;52.164;21.244;2022-12-18T03:57:37;32.75;;;17.70;;
49854;SDS011;35752;52.164;21.244;2022-12-18T04:00:08;34.00;;;18.73;;
49854;SDS011;35752;52.164;21.244;2022-12-18T04:02:37;31.20;;;15.55;;
49854;SDS011;35752;52.164;21.244;2022-12-18T04:05:05;30.60;;;16.80;;
49854;SDS011;35752;52.164;21.244;2022-12-18T04:07:33;28.88;;;16.63;;
49854;SDS011;35752;52.164;21.244;2022-12-18T04:10:01;32.15;;;17.25;;
49854;SDS011;35752;52.164;21.244;2022-12-18T04:12:28;30.05;;;15.13;;
49854;SDS011;35752;52.164;21.244;2022-12-18T04:14:55;30.60;;;16.73;;
49854;SDS011;35752;52.164;21.244;2022-12-18T04:17:21;29.63;;;16.92;;
49854;SDS011;35752;52.164;21.244;2022-12-18T04:19:47;29.60;;;16.58;;
49854;SDS011;35752;52.164;21.244;2022-12-18T04:22:13;27.30;;;16.05;;
49854;SDS011;35752;52.164;21.244;2022-12-18T04:24:38;31.23;;;17.85;;
49854;SDS011;35752;52.164;21.244;2022-12-18T04:27:04;29.75;;;16.58;;
49854;SDS011;35752;52.164;21.244;2022-12-18T04:29:30;31.02;;;16.08;;
49854;SDS011;35752;52.164;21.244;2022-12-18T04:31:56;29.50;;;16.60;;
49854;SDS011;35752;52.164;21.244;2022-12-18T04:34:21;26.85;;;15.88;;
49854;SDS011;35752;52.164;21.244;2022-12-18T04:36:47;25.00;;;15.20;;
49854;SDS011;35752;52.164;21.244;2022-12-18T04:39:13;30.50;;;17.08;;
49854;SDS011;35752;52.164;21.244;2022-12-18T04:41:39;27.27;;;15.70;;
49854;SDS011;35752;52.164;21.244;2022-12-18T04:44:06;30.20;;;16.98;;
49854;SDS011;35752;52.164;21.244;2022-12-18T04:46:32;26.40;;;14.88;;
49854;SDS011;35752;52.164;21.244;2022-12-18T04:48:57;28.95;;;15.93;;
49854;SDS011;35752;52.164;21.244;2022-12-18T04:51:23;28.23;;;15.90;;
49854;SDS011;35752;52.164;21.244;2022-12-18T04:53:49;26.67;;;15.88;;
49854;SDS011;35752;52.164;21.244;2022-12-18T04:56:15;28.83;;;16.00;;
49854;SDS011;35752;52.164;21.244;2022-12-18T04:58:42;26.42;;;15.52;;
49854;SDS011;35752;52.164;21.244;2022-12-18T05:01:08;29.65;;;17.35;;
49854;SDS011;35752;52.164;21.244;2022-12-18T05:03:36;28.90;;;16.55;;
49854;SDS011;35752;52.164;21.244;2022-12-18T05:06:02;37.95;;;23.52;;
49854;SDS011;35752;52.164;21.244;2022-12-18T05:08:28;43.45;;;23.60;;
49854;SDS011;35752;52.164;21.244;2022-12-18T05:11:00;53.13;;;29.35;;
49854;SDS011;35752;52.164;21.244;2022-12-18T05:13:29;48.55;;;27.17;;
49854;SDS011;35752;52.164;21.244;2022-12-18T05:15:55;38.40;;;20.42;;
49854;SDS011;35752;52.164;21.244;2022-12-18T05:18:25;32.30;;;18.58;;
49854;SDS011;35752;52.164;21.244;2022-12-18T05:20:51;39.13;;;20.05;;
49854;SDS011;35752;52.164;21.244;2022-12-18T05:23:18;29.77;;;18.02;;
49854;SDS011;35752;52.164;21.244;2022-12-18T05:25:51;32.22;;;15.75;;
49854;SDS011;35752;52.164;21.244;2022-12-18T05:28:25;30.40;;;16.15;;
49854;SDS011;35752;52.164;21.244;2022-12-18T05:30:54;32.17;;;16.77;;
49854;SDS011;35752;52.164;21.244;2022-12-18T05:33:22;24.98;;;14.43;;
49854;SDS011;35752;52.164;21.244;2022-12-18T05:35:56;23.23;;;13.75;;
49854;SDS011;35752;52.164;21.244;2022-12-18T05:38:24;28.20;;;15.07;;
49854;SDS011;35752;52.164;21.244;2022-12-18T05:40:51;27.85;;;15.75;;
49854;SDS011;35752;52.164;21.244;2022-12-18T05:43:18;23.80;;;13.75;;
49854;SDS011;35752;52.164;21.244;2022-12-18T05:45:46;29.17;;;12.93;;
49854;SDS011;35752;52.164;21.244;2022-12-18T05:48:12;23.90;;;14.27;;
49854;SDS011;35752;52.164;21.244;2022-12-18T05:50:40;23.23;;;13.57;;
49854;SDS011;35752;52.164;21.244;2022-12-18T05:53:07;22.50;;;14.10;;
49854;SDS011;35752;52.164;21.244;2022-12-18T05:55:36;20.50;;;12.45;;
49854;SDS011;35752;52.164;21.244;2022-12-18T05:58:03;23.43;;;13.43;;
49854;SDS011;35752;52.164;21.244;2022-12-18T06:00:33;20.88;;;11.55;;
49854;SDS011;35752;52.164;21.244;2022-12-18T06:03:00;26.08;;;13.80;;
49854;SDS011;35752;52.164;21.244;2022-12-18T06:05:27;27.88;;;14.30;;
49854;SDS011;35752;52.164;21.244;2022-12-18T06:07:52;27.27;;;14.45;;
49854;SDS011;35752;52.164;21.244;2022-12-18T06:10:18;25.90;;;14.20;;
49854;SDS011;35752;52.164;21.244;2022-12-18T06:12:44;23.70;;;13.68;;
49854;SDS011;35752;52.164;21.244;2022-12-18T06:15:10;27.63;;;14.60;;
49854;SDS011;35752;52.164;21.244;2022-12-18T06:17:36;29.98;;;15.93;;
49854;SDS011;35752;52.164;21.244;2022-12-18T06:20:02;28.42;;;14.32;;
49854;SDS011;35752;52.164;21.244;2022-12-18T06:22:30;29.83;;;16.00;;
49854;SDS011;35752;52.164;21.244;2022-12-18T06:24:56;26.17;;;14.13;;
49854;SDS011;35752;52.164;21.244;2022-12-18T06:27:22;25.60;;;14.82;;
49854;SDS011;35752;52.164;21.244;2022-12-18T06:29:48;29.88;;;15.18;;
49854;SDS011;35752;52.164;21.244;2022-12-18T06:32:13;28.88;;;14.13;;
49854;SDS011;35752;52.164;21.244;2022-12-18T06:34:39;30.05;;;15.95;;
49854;SDS011;35752;52.164;21.244;2022-12-18T06:37:05;29.90;;;14.88;;
49854;SDS011;35752;52.164;21.244;2022-12-18T06:39:30;27.85;;;15.70;;
49854;SDS011;35752;52.164;21.244;2022-12-18T06:41:56;32.78;;;15.27;;
49854;SDS011;35752;52.164;21.244;2022-12-18T06:44:21;29.98;;;16.30;;
49854;SDS011;35752;52.164;21.244;2022-12-18T06:46:47;27.83;;;15.00;;
49854;SDS011;35752;52.164;21.244;2022-12-18T06:49:13;29.25;;;17.08;;
49854;SDS011;35752;52.164;21.244;2022-12-18T06:51:39;33.33;;;14.55;;
49854;SDS011;35752;52.164;21.244;2022-12-18T06:54:04;29.17;;;15.68;;
49854;SDS011;35752;52.164;21.244;2022-12-18T06:56:30;30.15;;;16.17;;
49854;SDS011;35752;52.164;21.244;2022-12-18T06:58:56;35.45;;;17.33;;
49854;SDS011;35752;52.164;21.244;2022-12-18T07:01:22;31.35;;;17.25;;
49854;SDS011;35752;52.164;21.244;2022-12-18T07:03:51;28.30;;;15.88;;
49854;SDS011;35752;52.164;21.244;2022-12-18T07:06:19;32.35;;;17.48;;
49854;SDS011;35752;52.164;21.244;2022-12-18T07:08:47;26.23;;;15.18;;
49854;SDS011;35752;52.164;21.244;2022-12-18T07:11:13;33.97;;;17.10;;
49854;SDS011;35752;52.164;21.244;2022-12-18T07:13:40;29.55;;;16.67;;
49854;SDS011;35752;52.164;21.244;2022-12-18T07:18:41;33.95;;;17.73;;
49854;SDS011;35752;52.164;21.244;2022-12-18T07:21:08;33.42;;;17.80;;
49854;SDS011;35752;52.164;21.244;2022-12-18T07:23:35;34.38;;;18.67;;
49854;SDS011;35752;52.164;21.244;2022-12-18T07:26:05;36.17;;;19.00;;
49854;SDS011;35752;52.164;21.244;2022-12-18T07:28:35;37.13;;;18.58;;
49854;SDS011;35752;52.164;21.244;2022-12-18T07:31:03;41.28;;;19.98;;
49854;SDS011;35752;52.164;21.244;2022-12-18T07:33:29;35.47;;;18.77;;
49854;SDS011;35752;52.164;21.244;2022-12-18T07:35:55;31.23;;;17.23;;
49854;SDS011;35752;52.164;21.244;2022-12-18T07:38:20;39.55;;;20.45;;
49854;SDS011;35752;52.164;21.244;2022-12-18T07:40:46;37.15;;;19.35;;
49854;SDS011;35752;52.164;21.244;2022-12-18T07:43:12;40.83;;;21.73;;
49854;SDS011;35752;52.164;21.244;2022-12-18T07:45:37;43.50;;;21.30;;
49854;SDS011;35752;52.164;21.244;2022-12-18T07:48:03;41.33;;;20.92;;
49854;SDS011;35752;52.164;21.244;2022-12-18T07:50:29;40.10;;;20.42;;
49854;SDS011;35752;52.164;21.244;2022-12-18T07:52:55;40.20;;;21.55;;
49854;SDS011;35752;52.164;21.244;2022-12-18T07:55:20;43.42;;;21.48;;
49854;SDS011;35752;52.164;21.244;2022-12-18T07:57:46;39.80;;;21.10;;
49854;SDS011;35752;52.164;21.244;2022-12-18T08:00:12;47.85;;;22.67;;
49854;SDS011;35752;52.164;21.244;2022-12-18T08:02:38;45.85;;;22.38;;
49854;SDS011;35752;52.164;21.244;2022-12-18T08:05:03;43.42;;;22.88;;
49854;SDS011;35752;52.164;21.244;2022-12-18T08:07:29;45.17;;;22.75;;
49854;SDS011;35752;52.164;21.244;2022-12-18T08:09:55;43.30;;;22.17;;
49854;SDS011;35752;52.164;21.244;2022-12-18T08:12:20;41.90;;;21.23;;
49854;SDS011;35752;52.164;21.244;2022-12-18T08:14:46;42.78;;;21.77;;
49854;SDS011;35752;52.164;21.244;2022-12-18T08:17:12;48.83;;;24.08;;
49854;SDS011;35752;52.164;21.244;2022-12-18T08:19:37;46.67;;;23.90;;
49854;SDS011;35752;52.164;21.244;2022-12-18T08:22:03;47.92;;;21.95;;
49854;SDS011;35752;52.164;21.244;2022-12-18T08:24:28;43.78;;;20.83;;
49854;SDS011;35752;52.164;21.244;2022-12-18T08:26:54;42.15;;;23.23;;
49854;SDS011;35752;52.164;21.244;2022-12-18T08:29:22;48.08;;;23.85;;
49854;SDS011;35752;52.164;21.244;2022-12-18T08:31:47;47.25;;;22.33;;
49854;SDS011;35752;52.164;21.244;2022-12-18T08:34:13;46.55;;;21.35;;
49854;SDS011;35752;52.164;21.244;2022-12-18T08:36:39;53.38;;;25.17;;
49854;SDS011;35752;52.164;21.244;2022-12-18T08:39:05;50.67;;;24.88;;
49854;SDS011;35752;52.164;21.244;2022-12-18T08:41:30;45.50;;;23.17;;
49854;SDS011;35752;52.164;21.244;2022-12-18T08:43:56;47.03;;;23.88;;
49854;SDS011;35752;52.164;21.244;2022-12-18T08:46:41;56.78;;;27.42;;
49854;SDS011;35752;52.164;21.244;2022-12-18T08:49:08;58.97;;;27.42;;
49854;SDS011;35752;52.164;21.244;2022-12-18T08:51:35;61.25;;;27.80;;
49854;SDS011;35752;52.164;21.244;2022-12-18T08:54:01;58.05;;;27.00;;
49854;SDS011;35752;52.164;21.244;2022-12-18T08:56:27;63.10;;;29.83;;
49854;SDS011;35752;52.164;21.244;2022-12-18T08:58:54;59.15;;;28.75;;
49854;SDS011;35752;52.164;21.244;2022-12-18T09:01:21;67.95;;;30.73;;
49854;SDS011;35752;52.164;21.244;2022-12-18T09:03:47;65.40;;;31.05;;
49854;SDS011;35752;52.164;21.244;2022-12-18T09:06:15;62.38;;;28.88;;
49854;SDS011;35752;52.164;21.244;2022-12-18T09:08:45;56.85;;;28.50;;
49854;SDS011;35752;52.164;21.244;2022-12-18T09:11:44;58.42;;;28.45;;
49854;SDS011;35752;52.164;21.244;2022-12-18T09:14:03;63.95;;;28.23;;
49854;SDS011;35752;52.164;21.244;2022-12-18T09:16:29;66.03;;;29.23;;
49854;SDS011;35752;52.164;21.244;2022-12-18T09:18:55;58.80;;;27.38;;
49854;SDS011;35752;52.164;21.244;2022-12-18T09:21:24;67.13;;;29.27;;
49854;SDS011;35752;52.164;21.244;2022-12-18T09:23:52;64.07;;;28.80;;
49854;SDS011;35752;52.164;21.244;2022-12-18T09:26:19;54.78;;;27.48;;
49854;SDS011;35752;52.164;21.244;2022-12-18T09:28:46;64.32;;;29.92;;
49854;SDS011;35752;52.164;21.244;2022-12-18T09:31:12;69.38;;;30.90;;
49854;SDS011;35752;52.164;21.244;2022-12-18T09:33:40;60.05;;;29.38;;
49854;SDS011;35752;52.164;21.244;2022-12-18T09:36:07;66.38;;;29.02;;
49854;SDS011;35752;52.164;21.244;2022-12-18T09:38:34;67.40;;;30.38;;
49854;SDS011;35752;52.164;21.244;2022-12-18T09:43:57;60.45;;;28.17;;
49854;SDS011;35752;52.164;21.244;2022-12-18T09:46:27;67.50;;;30.30;;
49854;SDS011;35752;52.164;21.244;2022-12-18T09:49:04;66.68;;;30.38;;
49854;SDS011;35752;52.164;21.244;2022-12-18T09:54:22;62.63;;;28.60;;
49854;SDS011;35752;52.164;21.244;2022-12-18T09:56:58;63.63;;;28.95;;
49854;SDS011;35752;52.164;21.244;2022-12-18T09:59:24;58.35;;;28.55;;
49854;SDS011;35752;52.164;21.244;2022-12-18T10:02:30;60.97;;;28.23;;
49854;SDS011;35752;52.164;21.244;2022-12-18T10:12:52;55.55;;;27.33;;
49854;SDS011;35752;52.164;21.244;2022-12-18T10:21:09;60.28;;;27.17;;
49854;SDS011;35752;52.164;21.244;2022-12-18T10:24:02;47.33;;;25.15;;
49854;SDS011;35752;52.164;21.244;2022-12-18T10:26:54;64.88;;;29.00;;
49854;SDS011;35752;52.164;21.244;2022-12-18T10:29:24;53.50;;;26.20;;
49854;SDS011;35752;52.164;21.244;2022-12-18T10:31:50;59.90;;;27.27;;
49854;SDS011;35752;52.164;21.244;2022-12-18T10:34:16;60.45;;;28.23;;
49854;SDS011;35752;52.164;21.244;2022-12-18T10:36:42;57.17;;;27.52;;
49854;SDS011;35752;52.164;21.244;2022-12-18T10:39:41;58.60;;;26.58;;
49854;SDS011;35752;52.164;21.244;2022-12-18T10:42:10;55.33;;;26.70;;
49854;SDS011;35752;52.164;21.244;2022-12-18T10:44:40;56.47;;;25.42;;
49854;SDS011;35752;52.164;21.244;2022-12-18T10:47:06;48.33;;;25.88;;
49854;SDS011;35752;52.164;21.244;2022-12-18T10:49:40;53.92;;;25.98;;
49854;SDS011;35752;52.164;21.244;2022-12-18T10:52:23;49.08;;;25.25;;
49854;SDS011;35752;52.164;21.244;2022-12-18T10:54:51;47.75;;;24.63;;
49854;SDS011;35752;52.164;21.244;2022-12-18T11:02:52;49.97;;;26.98;;
49854;SDS011;35752;52.164;21.244;2022-12-18T11:05:32;52.85;;;26.13;;
49854;SDS011;35752;52.164;21.244;2022-12-18T11:07:59;55.90;;;27.77;;
49854;SDS011;35752;52.164;21.244;2022-12-18T11:10:44;58.22;;;29.25;;
49854;SDS011;35752;52.164;21.244;2022-12-18T11:13:18;58.83;;;30.00;;
49854;SDS011;35752;52.164;21.244;2022-12-18T11:15:47;55.47;;;29.05;;
49854;SDS011;35752;52.164;21.244;2022-12-18T11:18:33;51.85;;;27.98;;
49854;SDS011;35752;52.164;21.244;2022-12-18T11:21:09;56.67;;;28.92;;
49854;SDS011;35752;52.164;21.244;2022-12-18T11:23:37;64.90;;;29.73;;
49854;SDS011;35752;52.164;21.244;2022-12-18T11:26:16;61.58;;;29.88;;
49854;SDS011;35752;52.164;21.244;2022-12-18T11:29:07;56.45;;;29.13;;
49854;SDS011;35752;52.164;21.244;2022-12-18T11:31:35;58.10;;;30.10;;
49854;SDS011;35752;52.164;21.244;2022-12-18T11:36:44;56.85;;;29.48;;
49854;SDS011;35752;52.164;21.244;2022-12-18T11:39:18;57.40;;;30.02;;
49854;SDS011;35752;52.164;21.244;2022-12-18T11:41:51;60.22;;;31.02;;
49854;SDS011;35752;52.164;21.244;2022-12-18T11:49:36;57.60;;;29.98;;
49854;SDS011;35752;52.164;21.244;2022-12-18T11:54:44;53.10;;;28.27;;
49854;SDS011;35752;52.164;21.244;2022-12-18T11:57:17;59.15;;;30.63;;
49854;SDS011;35752;52.164;21.244;2022-12-18T12:11:28;54.35;;;28.73;;
49854;SDS011;35752;52.164;21.244;2022-12-18T12:16:53;65.60;;;31.08;;
49854;SDS011;35752;52.164;21.244;2022-12-18T12:22:24;63.38;;;30.85;;
49854;SDS011;35752;52.164;21.244;2022-12-18T12:25:48;68.18;;;33.13;;
49854;SDS011;35752;52.164;21.244;2022-12-18T12:39:13;58.10;;;30.17;;
49854;SDS011;35752;52.164;21.244;2022-12-18T12:41:43;68.72;;;31.75;;
49854;SDS011;35752;52.164;21.244;2022-12-18T12:44:30;65.05;;;31.48;;
49854;SDS011;35752;52.164;21.244;2022-12-18T12:47:01;68.00;;;32.25;;
49854;SDS011;35752;52.164;21.244;2022-12-18T12:49:36;65.82;;;31.25;;
49854;SDS011;35752;52.164;21.244;2022-12-18T12:55:24;70.32;;;32.95;;
49854;SDS011;35752;52.164;21.244;2022-12-18T13:09:13;57.63;;;30.60;;
49854;SDS011;35752;52.164;21.244;2022-12-18T13:11:42;63.83;;;31.52;;
49854;SDS011;35752;52.164;21.244;2022-12-18T13:14:39;63.80;;;31.53;;
49854;SDS011;35752;52.164;21.244;2022-12-18T13:19:49;61.22;;;32.13;;
49854;SDS011;35752;52.164;21.244;2022-12-18T13:28:10;62.80;;;30.60;;
49854;SDS011;35752;52.164;21.244;2022-12-18T13:30:41;59.10;;;30.60;;
49854;SDS011;35752;52.164;21.244;2022-12-18T13:46:06;63.97;;;29.92;;
49854;SDS011;35752;52.164;21.244;2022-12-18T13:48:49;60.90;;;30.67;;
49854;SDS011;35752;52.164;21.244;2022-12-18T13:51:24;61.53;;;29.08;;
49854;SDS011;35752;52.164;21.244;2022-12-18T13:56:21;56.28;;;28.65;;
49854;SDS011;35752;52.164;21.244;2022-12-18T14:02:20;53.25;;;26.80;;
49854;SDS011;35752;52.164;21.244;2022-12-18T14:04:40;54.28;;;27.27;;
49854;SDS011;35752;52.164;21.244;2022-12-18T14:09:43;59.13;;;28.90;;
49854;SDS011;35752;52.164;21.244;2022-12-18T14:12:14;60.10;;;29.00;;
49854;SDS011;35752;52.164;21.244;2022-12-18T14:17:54;68.13;;;31.25;;
49854;SDS011;35752;52.164;21.244;2022-12-18T14:20:39;61.20;;;29.98;;
49854;SDS011;35752;52.164;21.244;2022-12-18T14:26:02;60.80;;;31.55;;
49854;SDS011;35752;52.164;21.244;2022-12-18T14:28:46;62.83;;;29.17;;
49854;SDS011;35752;52.164;21.244;2022-12-18T14:31:23;60.42;;;28.88;;
49854;SDS011;35752;52.164;21.244;2022-12-18T14:33:53;49.67;;;26.35;;
49854;SDS011;35752;52.164;21.244;2022-12-18T14:36:20;53.55;;;26.73;;
49854;SDS011;35752;52.164;21.244;2022-12-18T14:38:48;61.08;;;28.90;;
49854;SDS011;35752;52.164;21.244;2022-12-18T14:41:16;52.92;;;26.17;;
49854;SDS011;35752;52.164;21.244;2022-12-18T14:43:44;54.75;;;27.05;;
49854;SDS011;35752;52.164;21.244;2022-12-18T14:49:02;56.85;;;27.85;;
49854;SDS011;35752;52.164;21.244;2022-12-18T14:51:47;54.58;;;30.00;;
49854;SDS011;35752;52.164;21.244;2022-12-18T14:54:18;64.40;;;30.55;;
49854;SDS011;35752;52.164;21.244;2022-12-18T14:56:46;57.97;;;28.48;;
49854;SDS011;35752;52.164;21.244;2022-12-18T14:59:17;58.53;;;29.80;;
49854;SDS011;35752;52.164;21.244;2022-12-18T15:02:03;57.40;;;27.50;;
49854;SDS011;35752;52.164;21.244;2022-12-18T15:04:43;58.33;;;28.45;;
49854;SDS011;35752;52.164;21.244;2022-12-18T15:09:42;59.03;;;29.20;;
49854;SDS011;35752;52.164;21.244;2022-12-18T15:12:25;66.78;;;30.40;;
49854;SDS011;35752;52.164;21.244;2022-12-18T15:15:02;62.22;;;30.73;;
49854;SDS011;35752;52.164;21.244;2022-12-18T15:17:29;65.63;;;30.08;;
49854;SDS011;35752;52.164;21.244;2022-12-18T15:19:59;69.63;;;32.80;;
49854;SDS011;35752;52.164;21.244;2022-12-18T15:22:28;65.15;;;31.08;;
49854;SDS011;35752;52.164;21.244;2022-12-18T15:24:58;60.75;;;30.70;;
49854;SDS011;35752;52.164;21.244;2022-12-18T15:32:35;54.28;;;30.10;;
49854;SDS011;35752;52.164;21.244;2022-12-18T15:35:03;61.75;;;31.83;;
49854;SDS011;35752;52.164;21.244;2022-12-18T15:37:29;63.70;;;31.73;;
49854;SDS011;35752;52.164;21.244;2022-12-18T15:39:55;69.22;;;33.38;;
49854;SDS011;35752;52.164;21.244;2022-12-18T15:42:20;60.53;;;30.67;;
49854;SDS011;35752;52.164;21.244;2022-12-18T15:45:04;61.60;;;30.60;;
49854;SDS011;35752;52.164;21.244;2022-12-18T15:47:30;63.22;;;31.02;;
49854;SDS011;35752;52.164;21.244;2022-12-18T15:49:57;63.25;;;30.90;;
49854;SDS011;35752;52.164;21.244;2022-12-18T15:52:23;59.45;;;30.45;;
49854;SDS011;35752;52.164;21.244;2022-12-18T15:54:50;58.92;;;27.77;;
49854;SDS011;35752;52.164;21.244;2022-12-18T15:57:35;58.50;;;28.17;;
49854;SDS011;35752;52.164;21.244;2022-12-18T16:00:01;53.80;;;26.63;;
49854;SDS011;35752;52.164;21.244;2022-12-18T16:02:26;55.25;;;27.17;;
49854;SDS011;35752;52.164;21.244;2022-12-18T16:04:53;57.30;;;28.45;;
49854;SDS011;35752;52.164;21.244;2022-12-18T16:07:19;59.17;;;30.15;;
49854;SDS011;35752;52.164;21.244;2022-12-18T16:09:45;57.28;;;27.88;;
49854;SDS011;35752;52.164;21.244;2022-12-18T16:12:15;58.15;;;30.83;;
49854;SDS011;35752;52.164;21.244;2022-12-18T16:14:46;59.88;;;28.92;;
49854;SDS011;35752;52.164;21.244;2022-12-18T16:17:13;65.22;;;31.02;;
49854;SDS011;35752;52.164;21.244;2022-12-18T16:19:39;60.63;;;29.20;;
49854;SDS011;35752;52.164;21.244;2022-12-18T16:22:04;58.83;;;29.25;;
49854;SDS011;35752;52.164;21.244;2022-12-18T16:24:31;58.17;;;29.85;;
49854;SDS011;35752;52.164;21.244;2022-12-18T16:26:59;59.08;;;28.90;;
49854;SDS011;35752;52.164;21.244;2022-12-18T16:29:26;51.33;;;26.73;;
49854;SDS011;35752;52.164;21.244;2022-12-18T16:31:53;55.97;;;28.58;;
49854;SDS011;35752;52.164;21.244;2022-12-18T16:34:24;48.58;;;26.50;;
49854;SDS011;35752;52.164;21.244;2022-12-18T16:36:56;56.47;;;26.80;;
49854;SDS011;35752;52.164;21.244;2022-12-18T16:39:23;52.22;;;26.65;;
49854;SDS011;35752;52.164;21.244;2022-12-18T16:41:49;54.67;;;27.45;;
49854;SDS011;35752;52.164;21.244;2022-12-18T16:44:15;59.05;;;28.13;;
49854;SDS011;35752;52.164;21.244;2022-12-18T16:46:41;56.95;;;27.40;;
49854;SDS011;35752;52.164;21.244;2022-12-18T16:49:16;52.13;;;26.98;;
49854;SDS011;35752;52.164;21.244;2022-12-18T16:51:43;59.13;;;28.52;;
49854;SDS011;35752;52.164;21.244;2022-12-18T16:54:11;57.50;;;27.38;;
49854;SDS011;35752;52.164;21.244;2022-12-18T16:56:37;52.05;;;24.85;;
49854;SDS011;35752;52.164;21.244;2022-12-18T16:59:03;52.20;;;27.23;;